createdAt,value
2019-05-22T13:42:40.176Z,98076.88
2019-05-22T13:45:26.026Z,98080.97
2019-05-22T13:47:39.520Z,98075.18
2019-05-22T13:50:09.965Z,98062.28
2019-05-22T13:52:39.149Z,98056.48
2019-05-22T13:55:09.676Z,98064.52
2019-05-22T13:57:38.379Z,98052.40
2019-05-22T14:00:09.495Z,98053.19
2019-05-22T14:02:37.531Z,98051.72
2019-05-22T14:05:06.333Z,98049.20
2019-05-22T14:07:35.116Z,98057.09
2019-05-22T14:10:04.336Z,98059.33
2019-05-22T14:12:33.058Z,98054.05
2019-05-22T14:15:01.777Z,98063.30
2019-05-22T14:17:30.424Z,98055.63
2019-05-22T14:19:59.073Z,98055.64
2019-05-22T14:22:27.707Z,98057.34
2019-05-22T14:24:56.364Z,98064.09
2019-05-22T14:27:25.075Z,98063.27
2019-05-22T14:29:53.748Z,98060.00
2019-05-22T14:32:29.720Z,98057.44
2019-05-22T14:34:53.125Z,98058.20
2019-05-22T14:37:23.119Z,98063.70
2019-05-22T14:39:51.769Z,98063.03
2019-05-22T14:42:21.209Z,98061.97
2019-05-22T14:44:50.288Z,98062.12
2019-05-22T14:47:19.379Z,98055.88
2019-05-22T14:49:48.019Z,98065.34
2019-05-22T14:52:17.153Z,98061.11
2019-05-22T14:54:45.926Z,98057.57
2019-05-22T14:57:14.561Z,98063.78
2019-05-22T14:59:43.218Z,98070.73
2019-05-22T15:02:12.227Z,98063.69
2019-05-22T15:04:41.142Z,98066.16
2019-05-22T15:07:09.811Z,98070.27
2019-05-22T15:09:38.496Z,98070.89
2019-05-22T15:12:07.216Z,98073.44
2019-05-22T15:14:35.908Z,98075.22
2019-05-22T15:17:05.007Z,98072.64
2019-05-22T15:19:33.720Z,98076.59
2019-05-22T15:22:02.636Z,98077.70
2019-05-22T15:24:31.643Z,98075.61
2019-05-22T15:27:00.734Z,98079.63
2019-05-22T15:29:29.514Z,98076.20
2019-05-22T15:31:58.345Z,98081.86
2019-05-22T15:34:27.114Z,98082.47
2019-05-22T15:36:56.397Z,98088.80
2019-05-22T15:39:26.847Z,98088.38
2019-05-22T15:41:55.791Z,98086.33
2019-05-22T15:44:24.674Z,98095.58
2019-05-22T15:46:53.413Z,98094.79
2019-05-22T15:49:22.635Z,98097.63
2019-05-22T15:51:51.978Z,98104.66
2019-05-22T15:54:20.713Z,98091.28
2019-05-22T15:56:49.508Z,98077.29
2019-05-22T15:59:18.604Z,98081.00
2019-05-22T16:01:48.552Z,98076.88
2019-05-22T16:04:18.086Z,98078.77
2019-05-22T16:06:46.791Z,98075.47
2019-05-22T16:09:17.267Z,98085.42
2019-05-22T16:11:46.194Z,98084.45
2019-05-22T16:14:15.118Z,98084.20
2019-05-22T16:16:45.156Z,98090.32
2019-05-22T16:19:13.920Z,98087.41
2019-05-22T16:21:45.171Z,98089.20
2019-05-22T16:24:14.094Z,98091.88
2019-05-22T16:26:42.916Z,98081.86
2019-05-22T16:29:13.408Z,98089.86
2019-05-22T16:31:43.043Z,98087.00
2019-05-22T16:34:11.785Z,98080.24
2019-05-22T16:36:40.444Z,98079.45
2019-05-22T16:39:10.605Z,98072.53
2019-05-22T16:41:40.267Z,98076.83
2019-05-22T16:44:09.387Z,98081.72
2019-05-22T16:46:39.891Z,98079.05
2019-05-22T16:49:08.690Z,98078.88
2019-05-22T16:51:37.399Z,98084.75
2019-05-22T16:54:07.172Z,98089.91
2019-05-22T16:56:35.893Z,98092.16
2019-05-22T16:59:04.935Z,98089.11
2019-05-22T17:01:33.575Z,98094.56
2019-05-22T17:04:02.823Z,98087.00
2019-05-22T17:06:32.297Z,98097.60
2019-05-22T17:09:01.379Z,98091.19
2019-05-22T17:11:31.495Z,98089.32
2019-05-22T17:14:01.386Z,98093.63
2019-05-22T17:16:31.833Z,98096.69
2019-05-22T17:19:00.614Z,98099.60
2019-05-22T17:21:29.734Z,98097.19
2019-05-22T17:23:58.607Z,98096.53
2019-05-22T17:26:27.625Z,98097.38
2019-05-22T17:28:56.360Z,98090.09
2019-05-22T17:31:25.840Z,98100.16
2019-05-22T17:33:54.612Z,98094.45
2019-05-22T17:36:23.828Z,98089.21
2019-05-22T17:38:52.759Z,98090.45
2019-05-22T17:41:22.232Z,98088.97
2019-05-22T17:43:51.296Z,98091.05
2019-05-22T17:46:19.955Z,98096.77
2019-05-22T17:48:49.048Z,98097.02
2019-05-22T17:51:18.471Z,98097.23
2019-05-22T17:53:47.232Z,98098.03
2019-05-22T17:56:16.130Z,98100.75
2019-05-22T17:58:44.794Z,98098.42
2019-05-22T18:01:14.575Z,98102.48
2019-05-22T18:03:43.333Z,98102.84
2019-05-22T18:06:12.319Z,98104.20
2019-05-22T18:08:41.287Z,98105.90
2019-05-22T18:11:10.528Z,98112.70
2019-05-22T18:13:53.711Z,98113.66
2019-05-22T18:16:23.215Z,98114.18
2019-05-22T18:18:52.069Z,98115.92
2019-05-22T18:21:21.299Z,98120.20
2019-05-22T18:23:50.321Z,98117.68
2019-05-22T18:26:19.359Z,98119.73
2019-05-22T18:28:48.018Z,98126.73
2019-05-22T18:31:16.712Z,98124.36
2019-05-22T18:33:45.422Z,98130.27
2019-05-22T18:36:14.085Z,98139.88
2019-05-22T18:38:42.739Z,98139.08
2019-05-22T18:41:11.385Z,98140.61
2019-05-22T18:43:40.496Z,98147.25
2019-05-22T18:46:09.498Z,98153.38
2019-05-22T18:48:38.178Z,98156.42
2019-05-22T18:51:07.435Z,98153.25
2019-05-22T18:53:36.186Z,98162.02
2019-05-22T18:56:06.544Z,98160.53
2019-05-22T18:58:35.275Z,98170.44
2019-05-22T19:01:04.214Z,98168.03
2019-05-22T19:03:33.318Z,98165.44
2019-05-22T19:06:02.263Z,98171.44
2019-05-22T19:08:31.598Z,98171.72
2019-05-22T19:11:00.443Z,98173.82
2019-05-22T19:13:29.224Z,98173.60
2019-05-22T19:15:57.978Z,98180.80
2019-05-22T19:18:27.309Z,98180.00
2019-05-22T19:20:56.212Z,98183.56
2019-05-22T19:23:24.867Z,98187.25
2019-05-22T19:25:53.521Z,98187.09
2019-05-22T19:28:22.557Z,98189.91
2019-05-22T19:30:51.397Z,98186.73
2019-05-22T19:33:20.799Z,98189.11
2019-05-22T19:35:50.283Z,98195.54
2019-05-22T19:38:19.107Z,98194.38
2019-05-22T19:40:47.736Z,98199.37
2019-05-22T19:43:17.497Z,98195.17
2019-05-22T19:45:46.305Z,98203.76
2019-05-22T19:48:15.332Z,98200.09
2019-05-22T19:50:45.547Z,98201.62
2019-05-22T19:53:19.145Z,98202.06
2019-05-22T19:55:46.968Z,98208.25
2019-05-22T19:58:15.628Z,98199.23
2019-05-22T20:00:44.886Z,98204.87
2019-05-22T20:03:15.544Z,98208.27
2019-05-22T20:05:44.703Z,98204.30
2019-05-22T20:08:13.430Z,98205.08
2019-05-22T20:10:42.548Z,98209.02
2019-05-22T20:13:11.606Z,98204.44
2019-05-22T20:15:40.612Z,98206.02
2019-05-22T20:18:09.709Z,98220.55
2019-05-22T20:20:38.444Z,98213.77
2019-05-22T20:23:08.780Z,98212.02
2019-05-22T20:25:37.880Z,98221.09
2019-05-22T20:28:06.884Z,98216.99
2019-05-22T20:30:35.645Z,98217.40
2019-05-22T20:33:04.756Z,98215.81
2019-05-22T20:35:34.307Z,98209.28
2019-05-22T20:38:04.265Z,98215.59
2019-05-22T20:40:33.773Z,98222.61
2019-05-22T20:43:03.707Z,98218.97
2019-05-22T20:45:33.409Z,98226.27
2019-05-22T20:48:14.383Z,98221.26
2019-05-22T20:50:44.003Z,98224.16
2019-05-22T20:53:13.322Z,98228.40
2019-05-22T20:55:42.326Z,98226.56
2019-05-22T20:58:11.698Z,98233.08
2019-05-22T21:00:40.802Z,98226.38
2019-05-22T21:03:09.704Z,98231.84
2019-05-22T21:05:40.076Z,98234.80
2019-05-22T21:08:11.492Z,98238.07
2019-05-22T21:10:42.541Z,98235.11
2019-05-22T21:13:11.424Z,98231.88
2019-05-22T21:15:40.310Z,98237.16
2019-05-22T21:18:10.049Z,98233.13
2019-05-22T21:20:53.550Z,98237.70
2019-05-22T21:23:09.824Z,98242.27
2019-05-22T21:25:38.637Z,98238.00
2019-05-22T21:28:07.381Z,98245.75
2019-05-22T21:30:36.074Z,98245.09
2019-05-22T21:33:05.169Z,98244.09
2019-05-22T21:35:35.027Z,98247.42
2019-05-22T21:38:04.359Z,98250.70
2019-05-22T21:40:33.391Z,98246.39
2019-05-22T21:43:02.317Z,98249.02
2019-05-22T21:45:31.551Z,98247.77
2019-05-22T21:48:01.015Z,98253.12
2019-05-22T21:50:29.647Z,98247.55
2019-05-22T21:52:59.121Z,98258.64
2019-05-22T21:55:28.110Z,98254.66
2019-05-22T21:57:57.007Z,98252.73
2019-05-22T22:00:46.702Z,98254.31
2019-05-22T22:03:16.986Z,98255.68
2019-05-22T22:05:45.759Z,98255.08
2019-05-22T22:08:14.409Z,98250.30
2019-05-22T22:10:43.124Z,98250.52
2019-05-22T22:13:12.584Z,98253.47
2019-05-22T22:15:42.660Z,98256.20
2019-05-22T22:18:12.106Z,98256.88
2019-05-22T22:20:40.956Z,98259.59
2019-05-22T22:23:09.970Z,98261.06
2019-05-22T22:25:39.479Z,98263.28
2019-05-22T22:28:08.191Z,98273.27
2019-05-22T22:30:45.602Z,98271.44
2019-05-22T22:33:14.707Z,98270.52
2019-05-22T22:35:44.301Z,98272.55
2019-05-22T22:38:13.607Z,98274.23
2019-05-22T22:40:42.724Z,98273.10
2019-05-22T22:43:12.248Z,98271.95
2019-05-22T22:45:43.774Z,98271.03
2019-05-22T22:48:13.299Z,98272.80
2019-05-22T22:50:42.795Z,98268.71
2019-05-22T22:53:12.015Z,98269.09
2019-05-22T22:55:41.327Z,98272.49
2019-05-22T22:58:17.085Z,98278.40
2019-05-22T23:00:43.299Z,98271.05
2019-05-22T23:03:13.567Z,98271.48
2019-05-22T23:05:42.770Z,98271.36
2019-05-22T23:08:12.590Z,98272.49
2019-05-22T23:10:42.442Z,98277.04
2019-05-22T23:13:11.739Z,98277.04
2019-05-22T23:15:41.104Z,98274.59
2019-05-22T23:18:09.934Z,98281.27
2019-05-22T23:20:38.759Z,98284.33
2019-05-22T23:23:07.892Z,98284.44
2019-05-22T23:25:37.813Z,98294.66
2019-05-22T23:28:06.464Z,98286.59
2019-05-22T23:30:35.435Z,98290.78
2019-05-22T23:33:05.740Z,98290.65
2019-05-22T23:35:35.334Z,98293.50
2019-05-22T23:38:04.656Z,98292.47
2019-05-22T23:40:34.252Z,98290.31
2019-05-22T23:43:04.616Z,98289.75
2019-05-22T23:45:34.938Z,98289.52
2019-05-22T23:48:06.558Z,98284.41
2019-05-22T23:50:36.697Z,98288.13
2019-05-22T23:53:05.784Z,98287.53
2019-05-22T23:55:35.239Z,98288.27
2019-05-22T23:58:05.610Z,98283.22
